sensor_id;sensor_type;location;lat;lon;timestamp;P1;durP1;ratioP1;P2;durP2;ratioP2
6661;SDS011;3367;48.714;8.994;2023-08-08T00:02:05;2.00;;;1.90;;
6661;SDS011;3367;48.714;8.994;2023-08-08T00:04:32;2.43;;;2.13;;
6661;SDS011;3367;48.714;8.994;2023-08-08T00:06:58;3.30;;;2.13;;
6661;SDS011;3367;48.714;8.994;2023-08-08T00:09:25;2.47;;;2.20;;
6661;SDS011;3367;48.714;8.994;2023-08-08T00:11:54;2.03;;;1.80;;
6661;SDS011;3367;48.714;8.994;2023-08-08T00:14:22;3.10;;;2.03;;
6661;SDS011;3367;48.714;8.994;2023-08-08T00:16:48;3.97;;;1.80;;
6661;SDS011;3367;48.714;8.994;2023-08-08T00:19:15;2.57;;;2.00;;
6661;SDS011;3367;48.714;8.994;2023-08-08T00:21:42;4.47;;;2.10;;
6661;SDS011;3367;48.714;8.994;2023-08-08T00:24:09;2.27;;;2.07;;
6661;SDS011;3367;48.714;8.994;2023-08-08T00:26:35;2.90;;;2.37;;
6661;SDS011;3367;48.714;8.994;2023-08-08T00:29:03;2.10;;;1.60;;
6661;SDS011;3367;48.714;8.994;2023-08-08T00:31:31;2.53;;;1.83;;
6661;SDS011;3367;48.714;8.994;2023-08-08T00:33:58;2.17;;;2.00;;
6661;SDS011;3367;48.714;8.994;2023-08-08T00:36:24;3.63;;;2.00;;
6661;SDS011;3367;48.714;8.994;2023-08-08T00:38:51;2.27;;;2.07;;
6661;SDS011;3367;48.714;8.994;2023-08-08T00:41:17;1.70;;;1.60;;
6661;SDS011;3367;48.714;8.994;2023-08-08T00:43:44;5.40;;;1.83;;
6661;SDS011;3367;48.714;8.994;2023-08-08T00:46:12;3.87;;;1.47;;
6661;SDS011;3367;48.714;8.994;2023-08-08T00:48:39;3.97;;;1.77;;
6661;SDS011;3367;48.714;8.994;2023-08-08T00:51:06;4.77;;;1.80;;
6661;SDS011;3367;48.714;8.994;2023-08-08T00:53:33;2.20;;;2.00;;
6661;SDS011;3367;48.714;8.994;2023-08-08T00:55:59;2.80;;;1.87;;
6661;SDS011;3367;48.714;8.994;2023-08-08T00:58:26;2.53;;;1.67;;
6661;SDS011;3367;48.714;8.994;2023-08-08T01:00:54;2.50;;;2.30;;
6661;SDS011;3367;48.714;8.994;2023-08-08T01:03:24;1.67;;;1.57;;
6661;SDS011;3367;48.714;8.994;2023-08-08T01:05:51;1.47;;;1.37;;
6661;SDS011;3367;48.714;8.994;2023-08-08T01:08:26;1.90;;;1.80;;
6661;SDS011;3367;48.714;8.994;2023-08-08T01:11:01;1.97;;;1.87;;
6661;SDS011;3367;48.714;8.994;2023-08-08T01:13:29;1.80;;;1.60;;
6661;SDS011;3367;48.714;8.994;2023-08-08T01:15:57;2.10;;;2.00;;
6661;SDS011;3367;48.714;8.994;2023-08-08T01:18:26;2.03;;;1.93;;
6661;SDS011;3367;48.714;8.994;2023-08-08T01:20:53;3.77;;;1.60;;
6661;SDS011;3367;48.714;8.994;2023-08-08T01:23:23;4.63;;;1.50;;
6661;SDS011;3367;48.714;8.994;2023-08-08T01:25:56;2.40;;;1.73;;
6661;SDS011;3367;48.714;8.994;2023-08-08T01:28:24;2.10;;;1.90;;
6661;SDS011;3367;48.714;8.994;2023-08-08T01:30:51;1.67;;;1.43;;
6661;SDS011;3367;48.714;8.994;2023-08-08T01:33:19;2.50;;;1.63;;
6661;SDS011;3367;48.714;8.994;2023-08-08T01:35:47;2.43;;;1.20;;
6661;SDS011;3367;48.714;8.994;2023-08-08T01:38:23;2.90;;;1.53;;
6661;SDS011;3367;48.714;8.994;2023-08-08T01:40:57;1.90;;;1.70;;
6661;SDS011;3367;48.714;8.994;2023-08-08T01:43:25;1.80;;;1.40;;
6661;SDS011;3367;48.714;8.994;2023-08-08T01:45:53;4.50;;;1.40;;
6661;SDS011;3367;48.714;8.994;2023-08-08T01:48:20;1.83;;;1.70;;
6661;SDS011;3367;48.714;8.994;2023-08-08T01:50:47;1.50;;;1.40;;
6661;SDS011;3367;48.714;8.994;2023-08-08T01:53:13;1.60;;;1.50;;
6661;SDS011;3367;48.714;8.994;2023-08-08T01:55:40;1.50;;;1.40;;
6661;SDS011;3367;48.714;8.994;2023-08-08T01:58:08;2.40;;;1.33;;
6661;SDS011;3367;48.714;8.994;2023-08-08T02:00:35;1.60;;;1.50;;
6661;SDS011;3367;48.714;8.994;2023-08-08T02:03:01;2.23;;;2.00;;
6661;SDS011;3367;48.714;8.994;2023-08-08T02:05:29;2.10;;;1.50;;
6661;SDS011;3367;48.714;8.994;2023-08-08T02:07:55;1.43;;;1.33;;
6661;SDS011;3367;48.714;8.994;2023-08-08T02:10:22;1.53;;;1.43;;
6661;SDS011;3367;48.714;8.994;2023-08-08T02:12:49;2.70;;;1.40;;
6661;SDS011;3367;48.714;8.994;2023-08-08T02:15:17;2.90;;;1.87;;
6661;SDS011;3367;48.714;8.994;2023-08-08T02:17:45;1.97;;;1.80;;
6661;SDS011;3367;48.714;8.994;2023-08-08T02:20:12;2.80;;;1.50;;
6661;SDS011;3367;48.714;8.994;2023-08-08T02:22:38;2.60;;;1.80;;
6661;SDS011;3367;48.714;8.994;2023-08-08T02:25:05;1.70;;;1.37;;
6661;SDS011;3367;48.714;8.994;2023-08-08T02:27:33;1.83;;;1.73;;
6661;SDS011;3367;48.714;8.994;2023-08-08T02:30:00;1.90;;;1.40;;
6661;SDS011;3367;48.714;8.994;2023-08-08T02:32:28;1.40;;;1.30;;
6661;SDS011;3367;48.714;8.994;2023-08-08T02:34:55;6.10;;;1.57;;
6661;SDS011;3367;48.714;8.994;2023-08-08T02:37:21;2.43;;;1.60;;
6661;SDS011;3367;48.714;8.994;2023-08-08T02:39:48;1.50;;;1.40;;
6661;SDS011;3367;48.714;8.994;2023-08-08T02:42:15;2.87;;;1.87;;
6661;SDS011;3367;48.714;8.994;2023-08-08T02:44:41;2.20;;;1.50;;
6661;SDS011;3367;48.714;8.994;2023-08-08T02:47:08;2.10;;;1.90;;
6661;SDS011;3367;48.714;8.994;2023-08-08T02:49:36;6.60;;;1.90;;
6661;SDS011;3367;48.714;8.994;2023-08-08T02:52:03;2.90;;;1.40;;
6661;SDS011;3367;48.714;8.994;2023-08-08T02:54:30;2.60;;;1.70;;
6661;SDS011;3367;48.714;8.994;2023-08-08T02:56:57;2.13;;;1.93;;
6661;SDS011;3367;48.714;8.994;2023-08-08T02:59:23;1.67;;;1.57;;
6661;SDS011;3367;48.714;8.994;2023-08-08T03:01:50;1.83;;;1.60;;
6661;SDS011;3367;48.714;8.994;2023-08-08T03:04:17;1.83;;;1.73;;
6661;SDS011;3367;48.714;8.994;2023-08-08T03:06:45;6.10;;;1.40;;
6661;SDS011;3367;48.714;8.994;2023-08-08T03:09:12;1.93;;;1.80;;
6661;SDS011;3367;48.714;8.994;2023-08-08T03:11:39;1.80;;;1.40;;
6661;SDS011;3367;48.714;8.994;2023-08-08T03:14:06;2.63;;;1.37;;
6661;SDS011;3367;48.714;8.994;2023-08-08T03:16:33;2.20;;;1.63;;
6661;SDS011;3367;48.714;8.994;2023-08-08T03:19:00;2.70;;;1.60;;
6661;SDS011;3367;48.714;8.994;2023-08-08T03:21:27;1.90;;;1.80;;
6661;SDS011;3367;48.714;8.994;2023-08-08T03:23:55;3.40;;;1.67;;
6661;SDS011;3367;48.714;8.994;2023-08-08T03:26:22;1.77;;;1.67;;
6661;SDS011;3367;48.714;8.994;2023-08-08T03:28:49;2.07;;;1.90;;
6661;SDS011;3367;48.714;8.994;2023-08-08T03:31:18;2.60;;;1.60;;
6661;SDS011;3367;48.714;8.994;2023-08-08T03:33:45;1.80;;;1.33;;
6661;SDS011;3367;48.714;8.994;2023-08-08T03:36:12;3.00;;;1.53;;
6661;SDS011;3367;48.714;8.994;2023-08-08T03:38:39;1.80;;;1.70;;
6661;SDS011;3367;48.714;8.994;2023-08-08T03:41:10;4.27;;;2.17;;
6661;SDS011;3367;48.714;8.994;2023-08-08T03:43:37;1.57;;;1.47;;
6661;SDS011;3367;48.714;8.994;2023-08-08T03:46:04;1.93;;;1.83;;
6661;SDS011;3367;48.714;8.994;2023-08-08T03:48:31;1.57;;;1.47;;
6661;SDS011;3367;48.714;8.994;2023-08-08T03:50:57;2.03;;;1.63;;
6661;SDS011;3367;48.714;8.994;2023-08-08T03:53:24;2.93;;;1.60;;
6661;SDS011;3367;48.714;8.994;2023-08-08T03:55:51;4.43;;;1.87;;
6661;SDS011;3367;48.714;8.994;2023-08-08T03:58:19;1.80;;;1.60;;
6661;SDS011;3367;48.714;8.994;2023-08-08T04:00:46;2.73;;;2.23;;
6661;SDS011;3367;48.714;8.994;2023-08-08T04:03:12;2.63;;;1.70;;
6661;SDS011;3367;48.714;8.994;2023-08-08T04:05:40;1.73;;;1.63;;
6661;SDS011;3367;48.714;8.994;2023-08-08T04:08:07;5.70;;;1.93;;
6661;SDS011;3367;48.714;8.994;2023-08-08T04:10:33;2.37;;;1.77;;
6661;SDS011;3367;48.714;8.994;2023-08-08T04:13:00;1.77;;;1.67;;
6661;SDS011;3367;48.714;8.994;2023-08-08T04:15:28;3.47;;;1.70;;
6661;SDS011;3367;48.714;8.994;2023-08-08T04:17:55;1.73;;;1.63;;
6661;SDS011;3367;48.714;8.994;2023-08-08T04:20:21;1.97;;;1.70;;
6661;SDS011;3367;48.714;8.994;2023-08-08T04:22:48;2.40;;;1.67;;
6661;SDS011;3367;48.714;8.994;2023-08-08T04:25:15;2.00;;;1.80;;
6661;SDS011;3367;48.714;8.994;2023-08-08T04:27:42;2.03;;;1.93;;
6661;SDS011;3367;48.714;8.994;2023-08-08T04:30:09;2.10;;;2.00;;
6661;SDS011;3367;48.714;8.994;2023-08-08T04:32:37;1.80;;;1.70;;
6661;SDS011;3367;48.714;8.994;2023-08-08T04:35:04;2.13;;;1.70;;
6661;SDS011;3367;48.714;8.994;2023-08-08T04:37:31;3.53;;;1.90;;
6661;SDS011;3367;48.714;8.994;2023-08-08T04:39:58;1.67;;;1.57;;
6661;SDS011;3367;48.714;8.994;2023-08-08T04:42:24;2.40;;;2.17;;
6661;SDS011;3367;48.714;8.994;2023-08-08T04:44:51;2.40;;;1.80;;
6661;SDS011;3367;48.714;8.994;2023-08-08T04:47:18;4.30;;;1.97;;
6661;SDS011;3367;48.714;8.994;2023-08-08T04:49:46;2.17;;;1.80;;
6661;SDS011;3367;48.714;8.994;2023-08-08T04:52:13;3.70;;;1.80;;
6661;SDS011;3367;48.714;8.994;2023-08-08T04:54:39;3.33;;;1.60;;
6661;SDS011;3367;48.714;8.994;2023-08-08T04:57:06;2.70;;;1.50;;
6661;SDS011;3367;48.714;8.994;2023-08-08T04:59:33;2.60;;;1.80;;
6661;SDS011;3367;48.714;8.994;2023-08-08T05:02:00;1.83;;;1.73;;
6661;SDS011;3367;48.714;8.994;2023-08-08T05:04:26;2.20;;;2.00;;
6661;SDS011;3367;48.714;8.994;2023-08-08T05:06:54;4.43;;;2.13;;
6661;SDS011;3367;48.714;8.994;2023-08-08T05:09:22;3.93;;;2.40;;
6661;SDS011;3367;48.714;8.994;2023-08-08T05:11:51;2.70;;;2.10;;
6661;SDS011;3367;48.714;8.994;2023-08-08T05:14:18;3.00;;;1.70;;
6661;SDS011;3367;48.714;8.994;2023-08-08T05:16:44;3.10;;;1.47;;
6661;SDS011;3367;48.714;8.994;2023-08-08T05:19:11;2.17;;;1.63;;
6661;SDS011;3367;48.714;8.994;2023-08-08T05:21:38;1.97;;;1.77;;
6661;SDS011;3367;48.714;8.994;2023-08-08T05:24:06;1.63;;;1.50;;
6661;SDS011;3367;48.714;8.994;2023-08-08T05:26:33;3.70;;;1.50;;
6661;SDS011;3367;48.714;8.994;2023-08-08T05:29:00;1.70;;;1.13;;
6661;SDS011;3367;48.714;8.994;2023-08-08T05:31:27;1.53;;;1.40;;
6661;SDS011;3367;48.714;8.994;2023-08-08T05:33:54;2.17;;;1.57;;
6661;SDS011;3367;48.714;8.994;2023-08-08T05:36:20;1.87;;;1.70;;
6661;SDS011;3367;48.714;8.994;2023-08-08T05:38:47;3.63;;;1.60;;
6661;SDS011;3367;48.714;8.994;2023-08-08T05:41:15;3.83;;;1.70;;
6661;SDS011;3367;48.714;8.994;2023-08-08T05:43:42;2.10;;;1.40;;
6661;SDS011;3367;48.714;8.994;2023-08-08T05:46:08;5.30;;;1.37;;
6661;SDS011;3367;48.714;8.994;2023-08-08T05:48:35;2.70;;;1.97;;
6661;SDS011;3367;48.714;8.994;2023-08-08T05:51:02;1.50;;;1.30;;
6661;SDS011;3367;48.714;8.994;2023-08-08T05:53:30;2.20;;;0.97;;
6661;SDS011;3367;48.714;8.994;2023-08-08T05:55:57;2.90;;;1.83;;
6661;SDS011;3367;48.714;8.994;2023-08-08T05:58:25;4.50;;;1.30;;
6661;SDS011;3367;48.714;8.994;2023-08-08T06:00:51;3.93;;;1.30;;
6661;SDS011;3367;48.714;8.994;2023-08-08T06:03:18;1.77;;;1.13;;
6661;SDS011;3367;48.714;8.994;2023-08-08T06:05:45;8.53;;;1.67;;
6661;SDS011;3367;48.714;8.994;2023-08-08T06:08:12;1.70;;;1.60;;
6661;SDS011;3367;48.714;8.994;2023-08-08T06:10:41;4.60;;;1.40;;
6661;SDS011;3367;48.714;8.994;2023-08-08T06:13:07;1.33;;;1.23;;
6661;SDS011;3367;48.714;8.994;2023-08-08T06:15:35;1.33;;;1.10;;
6661;SDS011;3367;48.714;8.994;2023-08-08T06:18:02;2.03;;;1.00;;
6661;SDS011;3367;48.714;8.994;2023-08-08T06:20:29;1.77;;;1.60;;
6661;SDS011;3367;48.714;8.994;2023-08-08T06:22:56;4.40;;;1.53;;
6661;SDS011;3367;48.714;8.994;2023-08-08T06:25:23;1.43;;;1.13;;
6661;SDS011;3367;48.714;8.994;2023-08-08T06:27:49;1.30;;;1.20;;
6661;SDS011;3367;48.714;8.994;2023-08-08T06:30:16;0.93;;;0.87;;
6661;SDS011;3367;48.714;8.994;2023-08-08T06:32:44;1.50;;;1.10;;
6661;SDS011;3367;48.714;8.994;2023-08-08T06:35:11;2.47;;;1.50;;
6661;SDS011;3367;48.714;8.994;2023-08-08T06:37:38;2.67;;;1.30;;
6661;SDS011;3367;48.714;8.994;2023-08-08T06:40:05;2.20;;;1.10;;
6661;SDS011;3367;48.714;8.994;2023-08-08T06:42:33;1.80;;;1.40;;
6661;SDS011;3367;48.714;8.994;2023-08-08T06:45:00;3.70;;;1.50;;
6661;SDS011;3367;48.714;8.994;2023-08-08T06:47:26;1.40;;;1.30;;
6661;SDS011;3367;48.714;8.994;2023-08-08T06:49:54;1.37;;;1.23;;
6661;SDS011;3367;48.714;8.994;2023-08-08T06:52:21;1.37;;;0.90;;
6661;SDS011;3367;48.714;8.994;2023-08-08T06:54:48;2.40;;;1.10;;
6661;SDS011;3367;48.714;8.994;2023-08-08T06:57:14;1.30;;;1.20;;
6661;SDS011;3367;48.714;8.994;2023-08-08T06:59:41;1.43;;;1.10;;
6661;SDS011;3367;48.714;8.994;2023-08-08T07:02:08;1.63;;;1.23;;
6661;SDS011;3367;48.714;8.994;2023-08-08T07:04:35;1.20;;;1.10;;
6661;SDS011;3367;48.714;8.994;2023-08-08T07:07:03;1.43;;;1.10;;
6661;SDS011;3367;48.714;8.994;2023-08-08T07:09:30;8.63;;;1.60;;
6661;SDS011;3367;48.714;8.994;2023-08-08T07:11:58;1.47;;;1.03;;
6661;SDS011;3367;48.714;8.994;2023-08-08T07:14:24;1.20;;;1.03;;
6661;SDS011;3367;48.714;8.994;2023-08-08T07:16:51;1.90;;;1.20;;
6661;SDS011;3367;48.714;8.994;2023-08-08T07:19:18;2.20;;;1.10;;
6661;SDS011;3367;48.714;8.994;2023-08-08T07:21:45;1.40;;;1.17;;
6661;SDS011;3367;48.714;8.994;2023-08-08T07:24:13;2.00;;;1.13;;
6661;SDS011;3367;48.714;8.994;2023-08-08T07:26:40;1.73;;;0.90;;
6661;SDS011;3367;48.714;8.994;2023-08-08T07:29:06;2.90;;;1.40;;
6661;SDS011;3367;48.714;8.994;2023-08-08T07:31:33;1.37;;;0.90;;
6661;SDS011;3367;48.714;8.994;2023-08-08T07:34:00;1.30;;;1.20;;
6661;SDS011;3367;48.714;8.994;2023-08-08T07:36:27;1.60;;;1.17;;
6661;SDS011;3367;48.714;8.994;2023-08-08T07:38:53;1.27;;;1.13;;
6661;SDS011;3367;48.714;8.994;2023-08-08T07:41:25;2.17;;;1.30;;
6661;SDS011;3367;48.714;8.994;2023-08-08T07:43:52;1.47;;;1.20;;
6661;SDS011;3367;48.714;8.994;2023-08-08T07:46:19;1.27;;;0.93;;
6661;SDS011;3367;48.714;8.994;2023-08-08T07:48:45;1.07;;;0.70;;
6661;SDS011;3367;48.714;8.994;2023-08-08T07:51:12;1.27;;;1.00;;
6661;SDS011;3367;48.714;8.994;2023-08-08T07:53:39;1.57;;;1.30;;
6661;SDS011;3367;48.714;8.994;2023-08-08T07:56:05;1.20;;;1.10;;
6661;SDS011;3367;48.714;8.994;2023-08-08T07:58:33;1.10;;;0.83;;
6661;SDS011;3367;48.714;8.994;2023-08-08T08:01:00;1.30;;;1.20;;
6661;SDS011;3367;48.714;8.994;2023-08-08T08:03:27;1.10;;;1.00;;
6661;SDS011;3367;48.714;8.994;2023-08-08T08:05:53;1.20;;;0.77;;
6661;SDS011;3367;48.714;8.994;2023-08-08T08:08:20;2.77;;;0.90;;
6661;SDS011;3367;48.714;8.994;2023-08-08T08:10:47;1.83;;;0.83;;
6661;SDS011;3367;48.714;8.994;2023-08-08T08:13:16;2.60;;;1.17;;
6661;SDS011;3367;48.714;8.994;2023-08-08T08:15:44;1.37;;;1.23;;
6661;SDS011;3367;48.714;8.994;2023-08-08T08:18:10;2.17;;;1.17;;
6661;SDS011;3367;48.714;8.994;2023-08-08T08:20:37;1.50;;;1.40;;
6661;SDS011;3367;48.714;8.994;2023-08-08T08:23:04;1.60;;;1.10;;
6661;SDS011;3367;48.714;8.994;2023-08-08T08:25:31;0.80;;;0.80;;
6661;SDS011;3367;48.714;8.994;2023-08-08T08:27:58;1.53;;;0.80;;
6661;SDS011;3367;48.714;8.994;2023-08-08T08:30:24;1.77;;;1.33;;
6661;SDS011;3367;48.714;8.994;2023-08-08T08:32:53;1.40;;;1.30;;
6661;SDS011;3367;48.714;8.994;2023-08-08T08:35:21;2.73;;;1.40;;
6661;SDS011;3367;48.714;8.994;2023-08-08T08:37:48;1.40;;;1.30;;
6661;SDS011;3367;48.714;8.994;2023-08-08T08:40:15;2.13;;;1.37;;
6661;SDS011;3367;48.714;8.994;2023-08-08T08:42:42;0.80;;;0.80;;
6661;SDS011;3367;48.714;8.994;2023-08-08T08:45:11;3.03;;;1.13;;
6661;SDS011;3367;48.714;8.994;2023-08-08T08:47:38;1.63;;;1.00;;
6661;SDS011;3367;48.714;8.994;2023-08-08T08:50:09;1.93;;;1.13;;
6661;SDS011;3367;48.714;8.994;2023-08-08T08:52:35;1.30;;;1.00;;
6661;SDS011;3367;48.714;8.994;2023-08-08T08:55:02;1.60;;;1.50;;
6661;SDS011;3367;48.714;8.994;2023-08-08T08:57:31;1.93;;;1.10;;
6661;SDS011;3367;48.714;8.994;2023-08-08T08:59:58;5.73;;;1.33;;
6661;SDS011;3367;48.714;8.994;2023-08-08T09:02:25;3.03;;;1.50;;
6661;SDS011;3367;48.714;8.994;2023-08-08T09:04:51;8.97;;;1.60;;
6661;SDS011;3367;48.714;8.994;2023-08-08T09:07:21;1.50;;;1.17;;
6661;SDS011;3367;48.714;8.994;2023-08-08T09:09:51;3.53;;;1.40;;
6661;SDS011;3367;48.714;8.994;2023-08-08T09:12:18;1.30;;;1.20;;
6661;SDS011;3367;48.714;8.994;2023-08-08T09:14:45;2.80;;;1.10;;
6661;SDS011;3367;48.714;8.994;2023-08-08T09:17:14;1.00;;;0.90;;
6661;SDS011;3367;48.714;8.994;2023-08-08T09:19:42;2.07;;;1.10;;
6661;SDS011;3367;48.714;8.994;2023-08-08T09:22:09;1.50;;;1.40;;
6661;SDS011;3367;48.714;8.994;2023-08-08T09:24:39;3.17;;;1.23;;
6661;SDS011;3367;48.714;8.994;2023-08-08T09:27:06;1.63;;;1.17;;
6661;SDS011;3367;48.714;8.994;2023-08-08T09:29:33;1.10;;;1.00;;
6661;SDS011;3367;48.714;8.994;2023-08-08T09:32:02;1.27;;;0.90;;
6661;SDS011;3367;48.714;8.994;2023-08-08T09:34:29;1.30;;;1.00;;
6661;SDS011;3367;48.714;8.994;2023-08-08T09:36:55;2.87;;;1.27;;
6661;SDS011;3367;48.714;8.994;2023-08-08T09:39:22;2.67;;;1.00;;
6661;SDS011;3367;48.714;8.994;2023-08-08T09:41:50;1.33;;;1.10;;
6661;SDS011;3367;48.714;8.994;2023-08-08T09:44:17;1.87;;;1.20;;
6661;SDS011;3367;48.714;8.994;2023-08-08T09:46:44;1.60;;;1.20;;
6661;SDS011;3367;48.714;8.994;2023-08-08T09:49:11;3.67;;;1.20;;
6661;SDS011;3367;48.714;8.994;2023-08-08T09:51:38;1.83;;;0.90;;
6661;SDS011;3367;48.714;8.994;2023-08-08T09:54:05;2.20;;;0.93;;
6661;SDS011;3367;48.714;8.994;2023-08-08T09:56:32;2.47;;;1.23;;
6661;SDS011;3367;48.714;8.994;2023-08-08T09:59:01;1.47;;;0.90;;
6661;SDS011;3367;48.714;8.994;2023-08-08T10:01:29;2.63;;;0.97;;
6661;SDS011;3367;48.714;8.994;2023-08-08T10:03:57;1.20;;;1.10;;
6661;SDS011;3367;48.714;8.994;2023-08-08T10:06:26;2.20;;;0.80;;
6661;SDS011;3367;48.714;8.994;2023-08-08T10:08:52;2.47;;;1.00;;
6661;SDS011;3367;48.714;8.994;2023-08-08T10:11:20;1.03;;;0.90;;
6661;SDS011;3367;48.714;8.994;2023-08-08T10:13:48;2.30;;;1.10;;
6661;SDS011;3367;48.714;8.994;2023-08-08T10:16:17;1.73;;;1.00;;
6661;SDS011;3367;48.714;8.994;2023-08-08T10:18:45;3.37;;;0.80;;
6661;SDS011;3367;48.714;8.994;2023-08-08T10:21:22;2.50;;;1.27;;
6661;SDS011;3367;48.714;8.994;2023-08-08T10:23:49;1.57;;;0.90;;
6661;SDS011;3367;48.714;8.994;2023-08-08T10:26:26;2.43;;;1.30;;
6661;SDS011;3367;48.714;8.994;2023-08-08T10:28:55;4.03;;;1.13;;
6661;SDS011;3367;48.714;8.994;2023-08-08T10:31:24;2.90;;;1.10;;
6661;SDS011;3367;48.714;8.994;2023-08-08T10:34:00;1.60;;;0.83;;
6661;SDS011;3367;48.714;8.994;2023-08-08T10:36:42;2.50;;;1.10;;
6661;SDS011;3367;48.714;8.994;2023-08-08T10:39:11;1.33;;;1.23;;
6661;SDS011;3367;48.714;8.994;2023-08-08T10:41:44;1.33;;;0.77;;
6661;SDS011;3367;48.714;8.994;2023-08-08T10:44:11;1.10;;;0.90;;
6661;SDS011;3367;48.714;8.994;2023-08-08T10:46:41;2.60;;;1.30;;
6661;SDS011;3367;48.714;8.994;2023-08-08T10:49:08;1.20;;;1.00;;
6661;SDS011;3367;48.714;8.994;2023-08-08T10:51:38;2.03;;;1.33;;
6661;SDS011;3367;48.714;8.994;2023-08-08T10:54:09;1.43;;;0.80;;
6661;SDS011;3367;48.714;8.994;2023-08-08T10:56:39;1.10;;;1.00;;
6661;SDS011;3367;48.714;8.994;2023-08-08T10:59:13;5.77;;;1.83;;
6661;SDS011;3367;48.714;8.994;2023-08-08T11:01:43;3.53;;;1.20;;
6661;SDS011;3367;48.714;8.994;2023-08-08T11:04:12;1.23;;;1.13;;
6661;SDS011;3367;48.714;8.994;2023-08-08T11:06:39;1.20;;;1.07;;
6661;SDS011;3367;48.714;8.994;2023-08-08T11:09:06;2.20;;;1.13;;
6661;SDS011;3367;48.714;8.994;2023-08-08T11:11:35;1.10;;;0.93;;
6661;SDS011;3367;48.714;8.994;2023-08-08T11:14:08;1.60;;;1.10;;
6661;SDS011;3367;48.714;8.994;2023-08-08T11:16:36;3.53;;;1.00;;
6661;SDS011;3367;48.714;8.994;2023-08-08T11:19:05;1.10;;;0.90;;
6661;SDS011;3367;48.714;8.994;2023-08-08T11:21:35;2.20;;;1.00;;
6661;SDS011;3367;48.714;8.994;2023-08-08T11:24:04;2.07;;;1.10;;
6661;SDS011;3367;48.714;8.994;2023-08-08T11:26:32;1.13;;;0.93;;
6661;SDS011;3367;48.714;8.994;2023-08-08T11:28:59;4.73;;;1.37;;
6661;SDS011;3367;48.714;8.994;2023-08-08T11:31:27;1.40;;;1.30;;
6661;SDS011;3367;48.714;8.994;2023-08-08T11:33:55;1.00;;;0.90;;
6661;SDS011;3367;48.714;8.994;2023-08-08T11:36:23;5.03;;;1.27;;
6661;SDS011;3367;48.714;8.994;2023-08-08T11:38:51;1.03;;;0.93;;
6661;SDS011;3367;48.714;8.994;2023-08-08T11:41:20;1.83;;;1.10;;
6661;SDS011;3367;48.714;8.994;2023-08-08T11:43:48;1.67;;;1.10;;
6661;SDS011;3367;48.714;8.994;2023-08-08T11:46:16;4.50;;;1.70;;
6661;SDS011;3367;48.714;8.994;2023-08-08T11:48:45;1.60;;;1.20;;
6661;SDS011;3367;48.714;8.994;2023-08-08T11:51:13;3.77;;;1.17;;
6661;SDS011;3367;48.714;8.994;2023-08-08T11:53:48;2.20;;;1.20;;
6661;SDS011;3367;48.714;8.994;2023-08-08T11:56:17;1.50;;;1.30;;
6661;SDS011;3367;48.714;8.994;2023-08-08T11:58:44;1.77;;;1.30;;
6661;SDS011;3367;48.714;8.994;2023-08-08T12:01:11;1.20;;;1.10;;
6661;SDS011;3367;48.714;8.994;2023-08-08T12:03:39;1.40;;;1.07;;
6661;SDS011;3367;48.714;8.994;2023-08-08T12:06:11;1.10;;;1.00;;
6661;SDS011;3367;48.714;8.994;2023-08-08T12:08:40;1.10;;;0.87;;
6661;SDS011;3367;48.714;8.994;2023-08-08T12:11:09;0.93;;;0.83;;
6661;SDS011;3367;48.714;8.994;2023-08-08T12:13:37;1.23;;;1.13;;
6661;SDS011;3367;48.714;8.994;2023-08-08T12:16:05;1.67;;;1.03;;
6661;SDS011;3367;48.714;8.994;2023-08-08T12:18:33;1.50;;;1.00;;
6661;SDS011;3367;48.714;8.994;2023-08-08T12:21:02;1.20;;;1.10;;
6661;SDS011;3367;48.714;8.994;2023-08-08T12:23:29;4.30;;;1.03;;
6661;SDS011;3367;48.714;8.994;2023-08-08T12:25:57;1.60;;;1.50;;
6661;SDS011;3367;48.714;8.994;2023-08-08T12:28:25;2.17;;;1.60;;
6661;SDS011;3367;48.714;8.994;2023-08-08T12:30:52;2.40;;;1.00;;
6661;SDS011;3367;48.714;8.994;2023-08-08T12:33:19;3.67;;;1.20;;
6661;SDS011;3367;48.714;8.994;2023-08-08T12:35:46;1.10;;;1.00;;
6661;SDS011;3367;48.714;8.994;2023-08-08T12:38:13;1.63;;;1.20;;
6661;SDS011;3367;48.714;8.994;2023-08-08T12:40:40;1.30;;;1.00;;
6661;SDS011;3367;48.714;8.994;2023-08-08T12:43:08;2.77;;;1.10;;
6661;SDS011;3367;48.714;8.994;2023-08-08T12:45:36;1.20;;;1.10;;
6661;SDS011;3367;48.714;8.994;2023-08-08T12:48:03;1.97;;;1.30;;
6661;SDS011;3367;48.714;8.994;2023-08-08T12:50:31;2.60;;;1.10;;
6661;SDS011;3367;48.714;8.994;2023-08-08T12:52:58;2.40;;;1.20;;
6661;SDS011;3367;48.714;8.994;2023-08-08T12:55:24;2.07;;;1.07;;
6661;SDS011;3367;48.714;8.994;2023-08-08T12:57:51;1.80;;;0.90;;
6661;SDS011;3367;48.714;8.994;2023-08-08T13:00:18;1.30;;;1.20;;
6661;SDS011;3367;48.714;8.994;2023-08-08T13:02:46;1.33;;;1.00;;
6661;SDS011;3367;48.714;8.994;2023-08-08T13:05:12;1.20;;;1.10;;
6661;SDS011;3367;48.714;8.994;2023-08-08T13:07:39;1.73;;;1.10;;
6661;SDS011;3367;48.714;8.994;2023-08-08T13:10:06;1.40;;;1.03;;
6661;SDS011;3367;48.714;8.994;2023-08-08T13:12:33;2.07;;;1.13;;
6661;SDS011;3367;48.714;8.994;2023-08-08T13:15:00;1.53;;;1.30;;
6661;SDS011;3367;48.714;8.994;2023-08-08T13:17:27;1.30;;;1.20;;
6661;SDS011;3367;48.714;8.994;2023-08-08T13:19:55;1.40;;;1.30;;
6661;SDS011;3367;48.714;8.994;2023-08-08T13:22:22;2.40;;;1.00;;
6661;SDS011;3367;48.714;8.994;2023-08-08T13:24:48;2.00;;;1.13;;
6661;SDS011;3367;48.714;8.994;2023-08-08T13:27:15;1.77;;;1.23;;
6661;SDS011;3367;48.714;8.994;2023-08-08T13:29:42;2.23;;;1.30;;
6661;SDS011;3367;48.714;8.994;2023-08-08T13:32:08;2.43;;;1.40;;
6661;SDS011;3367;48.714;8.994;2023-08-08T13:34:35;1.87;;;1.30;;
6661;SDS011;3367;48.714;8.994;2023-08-08T13:37:03;1.23;;;1.10;;
6661;SDS011;3367;48.714;8.994;2023-08-08T13:39:30;2.13;;;1.40;;
6661;SDS011;3367;48.714;8.994;2023-08-08T13:41:56;2.43;;;1.40;;
6661;SDS011;3367;48.714;8.994;2023-08-08T13:44:23;1.30;;;1.20;;
6661;SDS011;3367;48.714;8.994;2023-08-08T13:46:50;1.30;;;1.20;;
6661;SDS011;3367;48.714;8.994;2023-08-08T13:49:17;2.53;;;1.10;;
6661;SDS011;3367;48.714;8.994;2023-08-08T13:51:44;1.53;;;0.93;;
6661;SDS011;3367;48.714;8.994;2023-08-08T13:54:12;1.10;;;1.00;;
6661;SDS011;3367;48.714;8.994;2023-08-08T13:56:39;1.50;;;1.20;;
6661;SDS011;3367;48.714;8.994;2023-08-08T13:59:05;2.40;;;0.97;;
6661;SDS011;3367;48.714;8.994;2023-08-08T14:01:32;2.40;;;1.17;;
6661;SDS011;3367;48.714;8.994;2023-08-08T14:03:59;1.57;;;1.47;;
6661;SDS011;3367;48.714;8.994;2023-08-08T14:06:25;2.13;;;1.20;;
6661;SDS011;3367;48.714;8.994;2023-08-08T14:08:53;1.30;;;1.20;;
6661;SDS011;3367;48.714;8.994;2023-08-08T14:11:21;3.67;;;1.10;;
6661;SDS011;3367;48.714;8.994;2023-08-08T14:13:48;4.10;;;1.20;;
6661;SDS011;3367;48.714;8.994;2023-08-08T14:16:15;1.40;;;1.30;;
6661;SDS011;3367;48.714;8.994;2023-08-08T14:18:42;1.70;;;1.00;;
6661;SDS011;3367;48.714;8.994;2023-08-08T14:21:08;1.30;;;1.10;;
6661;SDS011;3367;48.714;8.994;2023-08-08T14:23:35;2.27;;;1.30;;
6661;SDS011;3367;48.714;8.994;2023-08-08T14:26:02;1.83;;;1.13;;
6661;SDS011;3367;48.714;8.994;2023-08-08T14:28:30;2.10;;;1.13;;
6661;SDS011;3367;48.714;8.994;2023-08-08T14:30:57;1.83;;;1.50;;
6661;SDS011;3367;48.714;8.994;2023-08-08T14:33:23;1.17;;;1.07;;
6661;SDS011;3367;48.714;8.994;2023-08-08T14:35:50;1.70;;;1.60;;
6661;SDS011;3367;48.714;8.994;2023-08-08T14:38:17;1.17;;;1.07;;
6661;SDS011;3367;48.714;8.994;2023-08-08T14:40:43;2.30;;;1.37;;
6661;SDS011;3367;48.714;8.994;2023-08-08T14:43:10;1.83;;;1.30;;
6661;SDS011;3367;48.714;8.994;2023-08-08T14:45:38;1.00;;;0.90;;
6661;SDS011;3367;48.714;8.994;2023-08-08T14:48:05;1.87;;;1.00;;
6661;SDS011;3367;48.714;8.994;2023-08-08T14:50:32;1.60;;;1.30;;
6661;SDS011;3367;48.714;8.994;2023-08-08T14:52:59;1.23;;;1.13;;
6661;SDS011;3367;48.714;8.994;2023-08-08T14:55:26;1.30;;;0.90;;
6661;SDS011;3367;48.714;8.994;2023-08-08T14:57:52;1.63;;;1.20;;
6661;SDS011;3367;48.714;8.994;2023-08-08T15:00:19;3.57;;;1.53;;
6661;SDS011;3367;48.714;8.994;2023-08-08T15:02:47;1.20;;;0.97;;
6661;SDS011;3367;48.714;8.994;2023-08-08T15:05:14;1.10;;;1.00;;
6661;SDS011;3367;48.714;8.994;2023-08-08T15:07:41;1.10;;;1.00;;
6661;SDS011;3367;48.714;8.994;2023-08-08T15:10:08;2.20;;;1.57;;
6661;SDS011;3367;48.714;8.994;2023-08-08T15:12:36;1.60;;;1.50;;
6661;SDS011;3367;48.714;8.994;2023-08-08T15:15:04;2.50;;;1.20;;
6661;SDS011;3367;48.714;8.994;2023-08-08T15:17:31;1.67;;;1.00;;